Time;durP1;ratioP1;P1;durP2;ratioP2;P2;SDS_P1;SDS_P2;PMS_P1;PMS_P2;Temp;Humidity;BMP_temperature;BMP_pressure;BME280_temperature;BME280_humidity;BME280_pressure;Samples;Min_cycle;Max_cycle;Signal;HPM_P1;HPM_P2
2022/07/04 00:01:17;;;;;;;7.38;1.88;;;17.60;99.90;;;;;;5046462;28;20205;-81
2022/07/04 00:03:47;;;;;;;10.23;1.60;;;17.50;99.90;;;;;;5043461;28;20203;-81
2022/07/04 00:06:18;;;;;;;11.35;2.28;;;17.50;99.90;;;;;;5042340;28;20212;-80
2022/07/04 00:08:49;;;;;;;11.02;1.67;;;17.60;99.90;;;;;;5050491;28;20193;-80
2022/07/04 00:11:19;;;;;;;9.00;1.75;;;17.60;99.90;;;;;;5048737;28;20252;-80
2022/07/04 00:13:56;;;;;;;6.80;1.65;;;17.60;99.90;;;;;;5050236;28;20197;-80
2022/07/04 00:16:27;;;;;;;8.27;1.48;;;17.70;99.90;;;;;;5050313;28;20203;-81
2022/07/04 00:18:57;;;;;;;7.47;1.42;;;17.80;99.90;;;;;;5049677;28;20192;-80
2022/07/04 00:21:28;;;;;;;9.52;1.48;;;17.70;99.90;;;;;;5039050;28;20204;-81
2022/07/04 00:23:59;;;;;;;7.65;1.15;;;17.70;99.90;;;;;;5030426;28;20193;-81
2022/07/04 00:26:29;;;;;;;6.53;1.60;;;17.60;99.90;;;;;;5032061;28;20244;-81
2022/07/04 00:29:04;;;;;;;11.40;2.00;;;17.70;99.90;;;;;;5048942;28;20227;-81
2022/07/04 00:31:35;;;;;;;10.13;1.77;;;17.60;99.90;;;;;;5045372;28;20231;-80
2022/07/04 00:34:05;;;;;;;9.63;2.13;;;17.60;99.90;;;;;;5053909;28;20682;-81
2022/07/04 00:36:36;;;;;;;9.75;2.00;;;17.60;99.90;;;;;;5053321;28;20235;-80
2022/07/04 00:39:07;;;;;;;16.35;2.55;;;17.50;99.90;;;;;;5054053;28;20238;-80
2022/07/04 00:41:38;;;;;;;14.80;2.13;;;17.50;99.90;;;;;;5054851;28;20200;-80
2022/07/04 00:44:12;;;;;;;12.35;1.90;;;17.50;99.90;;;;;;5050456;28;20209;-81
2022/07/04 00:46:43;;;;;;;9.65;1.80;;;17.60;99.90;;;;;;5044614;28;20212;-81
2022/07/04 00:49:14;;;;;;;15.68;1.90;;;17.50;99.90;;;;;;5047389;28;20652;-81
2022/07/04 00:51:46;;;;;;;8.90;1.90;;;17.50;99.90;;;;;;5036893;28;20221;-81
2022/07/04 00:54:17;;;;;;;9.75;1.52;;;17.50;99.90;;;;;;5034005;28;20197;-80
2022/07/04 00:56:48;;;;;;;7.47;1.70;;;17.50;99.90;;;;;;5034109;28;20192;-80
2022/07/04 00:59:21;;;;;;;12.38;2.22;;;17.50;99.90;;;;;;5038957;28;20197;-80
2022/07/04 01:01:52;;;;;;;12.10;2.13;;;17.60;99.90;;;;;;5053598;28;20196;-80
2022/07/04 01:04:23;;;;;;;15.25;2.42;;;17.70;99.90;;;;;;5034226;28;20193;-81
2022/07/04 01:06:54;;;;;;;8.63;2.35;;;17.60;99.90;;;;;;5050583;28;20213;-81
2022/07/04 01:09:25;;;;;;;12.05;1.90;;;17.60;99.90;;;;;;5045495;28;20229;-81
2022/07/04 01:11:56;;;;;;;10.15;1.70;;;17.70;99.90;;;;;;5053489;28;20209;-78
2022/07/04 01:14:30;;;;;;;13.38;2.25;;;17.70;99.90;;;;;;5045199;28;20196;-78
2022/07/04 01:17:00;;;;;;;12.05;2.00;;;17.70;99.90;;;;;;5038061;28;20201;-78
2022/07/04 01:19:31;;;;;;;10.85;2.00;;;17.80;99.90;;;;;;5034040;28;20216;-78
2022/07/04 01:22:08;;;;;;;11.90;2.22;;;17.80;99.90;;;;;;5033697;28;20201;-81
2022/07/04 01:24:39;;;;;;;13.18;2.67;;;17.90;99.90;;;;;;5033628;28;20197;-81
2022/07/04 01:27:10;;;;;;;16.25;2.42;;;17.90;99.90;;;;;;5033260;28;20687;-81
2022/07/04 01:29:41;;;;;;;8.90;1.77;;;18.00;99.90;;;;;;5043655;28;20652;-80
2022/07/04 01:32:12;;;;;;;6.78;1.70;;;18.00;99.90;;;;;;5044471;28;20240;-81
2022/07/04 01:34:43;;;;;;;5.35;1.20;;;18.00;99.90;;;;;;5052524;28;20192;-81
2022/07/04 01:37:16;;;;;;;5.28;1.33;;;18.00;99.90;;;;;;5052241;28;20221;-81
2022/07/04 01:39:46;;;;;;;8.23;2.03;;;18.10;99.90;;;;;;5044836;28;20204;-81
2022/07/04 01:42:17;;;;;;;6.57;1.30;;;18.00;99.90;;;;;;5051522;28;20196;-81
2022/07/04 01:44:48;;;;;;;8.15;1.80;;;18.10;99.90;;;;;;5033065;28;20193;-81
2022/07/04 01:47:18;;;;;;;14.32;2.33;;;18.00;99.90;;;;;;5038560;28;20197;-81
2022/07/04 01:49:49;;;;;;;19.20;3.20;;;18.00;99.90;;;;;;5051983;28;20203;-81
2022/07/04 01:52:21;;;;;;;14.40;2.95;;;18.00;99.90;;;;;;5052460;28;20228;-82
2022/07/04 01:54:52;;;;;;;14.88;2.72;;;17.90;99.90;;;;;;5035997;28;20723;-80
2022/07/04 01:57:23;;;;;;;19.20;2.95;;;17.90;99.90;;;;;;5046338;28;20196;-80
2022/07/04 02:02:40;;;;;;;15.50;2.85;;;17.80;99.90;;;;;;5047149;28;20737;-80
2022/07/04 02:05:11;;;;;;;18.95;2.97;;;17.80;99.90;;;;;;5044501;28;20217;-80
2022/07/04 02:07:44;;;;;;;12.65;2.85;;;17.90;99.90;;;;;;5051882;28;20193;-81
2022/07/04 02:10:15;;;;;;;18.90;3.08;;;17.90;99.90;;;;;;5051962;28;20584;-81
2022/07/04 02:13:04;;;;;;;13.88;2.95;;;18.00;99.90;;;;;;5050472;28;20813;-80
2022/07/04 02:15:35;;;;;;;16.17;3.45;;;18.00;99.90;;;;;;5044069;28;20188;-80
2022/07/04 02:18:08;;;;;;;16.75;3.47;;;18.20;99.90;;;;;;5052618;28;20185;-80
2022/07/04 02:20:39;;;;;;;19.17;3.72;;;18.20;99.90;;;;;;5050213;28;20185;-80
2022/07/04 02:23:13;;;;;;;22.25;4.13;;;18.20;99.90;;;;;;5047667;28;20237;-80
2022/07/04 02:25:44;;;;;;;13.93;3.25;;;18.30;99.90;;;;;;5040371;28;20550;-80
2022/07/04 02:28:15;;;;;;;20.38;4.10;;;18.30;99.90;;;;;;5039408;28;20196;-80
2022/07/04 02:30:46;;;;;;;20.52;4.00;;;18.30;99.90;;;;;;5044435;28;20205;-80
2022/07/04 02:33:17;;;;;;;17.15;3.85;;;18.30;99.90;;;;;;5037050;28;20275;-80
2022/07/04 02:35:48;;;;;;;13.60;2.85;;;18.40;99.90;;;;;;5050614;28;20591;-80
2022/07/04 02:38:21;;;;;;;19.60;3.42;;;18.40;99.90;;;;;;5051661;28;20262;-80
2022/07/04 02:40:51;;;;;;;17.52;2.95;;;18.40;99.90;;;;;;5051605;28;20196;-80
2022/07/04 02:43:22;;;;;;;14.57;3.13;;;18.40;99.90;;;;;;5051900;28;20660;-80
2022/07/04 02:45:53;;;;;;;12.48;2.30;;;18.40;99.90;;;;;;5051467;28;20591;-80
2022/07/04 02:48:23;;;;;;;11.02;2.17;;;18.40;99.90;;;;;;5051398;28;20231;-80
2022/07/04 02:50:54;;;;;;;11.98;2.55;;;18.50;99.90;;;;;;5045069;28;20196;-80
2022/07/04 02:53:27;;;;;;;12.98;2.60;;;18.50;99.90;;;;;;5051456;28;20223;-81
2022/07/04 02:55:58;;;;;;;9.75;2.63;;;18.50;99.90;;;;;;5050652;28;20189;-80
2022/07/04 02:58:29;;;;;;;11.55;2.53;;;18.60;99.90;;;;;;5047776;28;20197;-80
2022/07/04 03:01:00;;;;;;;15.48;2.72;;;18.70;99.90;;;;;;5049107;28;20721;-80
2022/07/04 03:03:30;;;;;;;11.20;2.30;;;18.80;99.90;;;;;;5051209;28;20235;-81
2022/07/04 03:06:02;;;;;;;10.32;2.28;;;18.80;99.90;;;;;;5050768;28;20200;-80
2022/07/04 03:08:34;;;;;;;10.55;1.95;;;18.90;99.90;;;;;;5043181;28;20698;-80
2022/07/04 03:11:05;;;;;;;11.65;2.45;;;18.80;99.90;;;;;;5051002;28;20193;-80
2022/07/04 03:13:36;;;;;;;8.30;1.77;;;18.80;99.90;;;;;;5050941;28;20223;-81
2022/07/04 03:16:07;;;;;;;10.40;2.00;;;18.80;99.90;;;;;;5050721;28;20238;-80
2022/07/04 03:18:40;;;;;;;9.10;1.70;;;18.70;99.90;;;;;;5050661;28;20208;-80
2022/07/04 03:21:10;;;;;;;9.27;2.05;;;18.60;99.90;;;;;;5046492;28;20653;-80
2022/07/04 03:23:57;;;;;;;8.70;1.52;;;18.60;99.90;;;;;;5048836;28;20200;-80
2022/07/04 03:26:29;;;;;;;9.18;1.88;;;18.60;99.90;;;;;;5049309;28;20228;-80
2022/07/04 03:29:00;;;;;;;8.38;1.67;;;18.60;99.90;;;;;;5048174;28;20207;-80
2022/07/04 03:31:31;;;;;;;14.10;1.48;;;18.70;99.90;;;;;;5050102;28;20213;-80
2022/07/04 03:34:02;;;;;;;6.95;1.55;;;18.90;99.90;;;;;;5049792;28;20842;-81
2022/07/04 03:36:33;;;;;;;8.32;1.58;;;19.00;99.90;;;;;;5050567;28;20228;-80
2022/07/04 03:39:07;;;;;;;9.40;1.67;;;19.10;99.90;;;;;;5048909;28;20603;-81
2022/07/04 03:41:42;;;;;;;7.43;1.45;;;19.20;99.90;;;;;;5048697;28;20669;-80
2022/07/04 03:44:15;;;;;;;11.25;1.52;;;19.30;99.90;;;;;;5042763;28;20196;-80
2022/07/04 03:46:46;;;;;;;8.48;1.58;;;19.30;99.90;;;;;;5049958;28;20197;-81
2022/07/04 03:49:23;;;;;;;5.63;1.30;;;19.30;99.90;;;;;;5049892;28;20193;-81
2022/07/04 03:51:56;;;;;;;6.80;1.50;;;19.30;99.90;;;;;;5051415;28;20212;-81
2022/07/04 03:54:29;;;;;;;11.23;2.05;;;19.30;99.90;;;;;;5044409;28;20220;-83
2022/07/04 03:56:59;;;;;;;7.80;1.52;;;19.30;99.90;;;;;;5035892;28;20200;-82
2022/07/04 03:59:32;;;;;;;12.45;2.17;;;19.20;99.90;;;;;;5051296;28;20200;-82
2022/07/04 04:02:06;;;;;;;14.32;2.95;;;19.10;99.90;;;;;;5050808;28;20194;-80
2022/07/04 04:07:24;;;;;;;9.63;2.10;;;18.90;99.90;;;;;;5049425;28;20219;-80
2022/07/04 04:09:59;;;;;;;9.95;2.05;;;18.70;99.90;;;;;;5056238;28;20212;-80
2022/07/04 04:12:30;;;;;;;11.50;2.35;;;18.60;99.90;;;;;;5045710;28;20690;-80
2022/07/04 04:15:01;;;;;;;9.75;2.40;;;18.60;99.90;;;;;;5053527;28;20193;-81
2022/07/04 04:17:32;;;;;;;7.15;1.60;;;18.50;99.90;;;;;;5051272;28;20292;-81
2022/07/04 04:20:02;;;;;;;10.57;2.20;;;18.40;99.90;;;;;;5052342;28;20196;-81
2022/07/04 04:22:51;;;;;;;8.88;2.03;;;18.30;99.90;;;;;;5062484;28;20192;-81
2022/07/04 04:25:26;;;;;;;11.75;2.15;;;18.30;99.90;;;;;;5061480;28;20235;-79
2022/07/04 04:27:56;;;;;;;11.98;1.98;;;18.30;99.90;;;;;;5046782;28;20291;-80
2022/07/04 04:30:27;;;;;;;14.07;2.55;;;18.30;99.90;;;;;;5045730;28;20200;-80
2022/07/04 04:32:58;;;;;;;19.23;2.40;;;18.20;99.90;;;;;;5050085;28;20213;-81
2022/07/04 04:35:31;;;;;;;14.15;2.38;;;18.20;99.90;;;;;;5049040;28;20207;-82
2022/07/04 04:38:03;;;;;;;19.77;2.55;;;18.20;99.90;;;;;;5053036;28;20231;-81
2022/07/04 04:40:39;;;;;;;18.23;2.75;;;18.20;99.90;;;;;;5050082;28;20629;-81
2022/07/04 04:43:12;;;;;;;18.40;2.88;;;18.20;99.90;;;;;;5069580;28;20197;-80
2022/07/04 04:45:53;;;;;;;20.33;2.92;;;18.20;99.90;;;;;;5064164;28;20659;-81
2022/07/04 04:48:24;;;;;;;17.33;2.92;;;18.20;99.90;;;;;;5050180;28;20733;-81
2022/07/04 04:50:54;;;;;;;19.13;3.17;;;18.20;99.90;;;;;;5050265;28;20193;-80
2022/07/04 04:53:28;;;;;;;19.75;3.17;;;18.20;99.90;;;;;;5042354;28;20224;-82
2022/07/04 04:56:03;;;;;;;17.13;3.13;;;18.20;99.90;;;;;;5044907;28;20192;-80
2022/07/04 04:58:37;;;;;;;13.80;2.45;;;18.20;99.90;;;;;;5042724;28;20250;-81
2022/07/04 05:01:07;;;;;;;13.57;2.70;;;18.20;99.90;;;;;;5049757;28;20196;-80
2022/07/04 05:03:38;;;;;;;15.75;2.63;;;18.10;99.90;;;;;;5048946;28;20223;-82
2022/07/04 05:06:09;;;;;;;15.50;2.65;;;18.10;99.90;;;;;;5049369;28;20193;-80
2022/07/04 05:08:39;;;;;;;20.92;3.05;;;18.10;99.90;;;;;;5045560;28;20212;-80
2022/07/04 05:11:12;;;;;;;16.05;2.75;;;18.10;99.90;;;;;;5057103;28;20220;-81
2022/07/04 05:13:44;;;;;;;17.63;3.03;;;18.10;99.90;;;;;;5041742;28;20216;-80
2022/07/04 05:16:14;;;;;;;16.05;2.75;;;18.10;99.90;;;;;;5050009;28;20196;-80
2022/07/04 05:18:45;;;;;;;17.08;2.78;;;18.10;99.90;;;;;;5052349;28;20603;-80
2022/07/04 05:21:16;;;;;;;14.52;2.92;;;18.10;99.90;;;;;;5052209;28;20683;-80
2022/07/04 05:23:46;;;;;;;16.35;2.78;;;18.10;99.90;;;;;;5053211;28;20232;-80
2022/07/04 05:26:19;;;;;;;16.58;2.88;;;18.00;99.90;;;;;;5053341;28;20208;-80
2022/07/04 05:28:50;;;;;;;14.05;2.53;;;18.00;99.90;;;;;;5053269;28;20197;-80
2022/07/04 05:31:21;;;;;;;10.95;2.30;;;18.00;99.90;;;;;;5053412;28;20196;-80
2022/07/04 05:33:51;;;;;;;14.02;2.70;;;18.00;99.90;;;;;;5053354;28;20212;-81
2022/07/04 05:36:23;;;;;;;16.25;2.45;;;17.90;99.90;;;;;;5051469;28;20734;-81
2022/07/04 05:38:53;;;;;;;13.15;2.22;;;17.90;99.90;;;;;;5052925;28;20196;-81
2022/07/04 05:41:26;;;;;;;10.48;1.80;;;17.90;99.90;;;;;;5053707;28;20216;-80
2022/07/04 05:43:57;;;;;;;11.98;2.22;;;17.90;99.90;;;;;;5053219;28;20201;-80
2022/07/04 05:46:28;;;;;;;7.15;1.77;;;17.80;99.90;;;;;;5053052;28;20212;-80
2022/07/04 05:48:59;;;;;;;8.40;2.08;;;17.80;99.90;;;;;;5053003;28;20189;-80
2022/07/04 05:51:29;;;;;;;18.65;2.60;;;17.80;99.90;;;;;;5057393;28;20215;-80
2022/07/04 05:54:00;;;;;;;16.15;2.45;;;17.80;99.90;;;;;;5051056;28;20227;-80
2022/07/04 05:56:33;;;;;;;19.92;2.67;;;17.80;99.90;;;;;;5048758;28;20201;-80
2022/07/04 05:59:05;;;;;;;15.05;3.03;;;17.80;99.90;;;;;;5052544;28;20211;-80
2022/07/04 06:01:35;;;;;;;16.95;2.83;;;17.80;99.90;;;;;;5049059;28;20218;-80
2022/07/04 06:04:06;;;;;;;14.25;2.78;;;17.90;99.90;;;;;;5072087;28;20184;-80
2022/07/04 06:06:37;;;;;;;14.95;2.75;;;17.80;99.90;;;;;;5044593;28;20196;-80
2022/07/04 06:09:08;;;;;;;12.18;2.63;;;17.80;99.90;;;;;;5067939;28;20184;-80
2022/07/04 06:11:40;;;;;;;14.30;2.47;;;17.80;99.90;;;;;;5061851;28;20211;-80
2022/07/04 06:14:11;;;;;;;15.93;2.78;;;17.80;99.90;;;;;;5072602;28;20215;-81
2022/07/04 06:16:42;;;;;;;15.63;2.25;;;17.60;99.90;;;;;;5071819;28;20199;-81
2022/07/04 06:19:13;;;;;;;12.63;2.25;;;17.60;99.90;;;;;;5072167;28;20196;-81
2022/07/04 06:21:44;;;;;;;16.30;2.85;;;17.50;99.90;;;;;;5057452;28;20682;-81
2022/07/04 06:24:15;;;;;;;14.90;2.25;;;17.50;99.90;;;;;;5071706;28;20192;-80
2022/07/04 06:26:49;;;;;;;10.43;2.22;;;17.50;99.90;;;;;;5062382;28;20699;-80
2022/07/04 06:29:20;;;;;;;12.02;1.92;;;17.50;99.90;;;;;;5048253;28;20552;-80
2022/07/04 06:31:50;;;;;;;10.27;2.00;;;17.40;99.90;;;;;;5051976;28;20196;-80
2022/07/04 06:37:07;;;;;;;7.55;1.77;;;17.50;99.90;;;;;;5071001;28;20246;-80
2022/07/04 06:39:38;;;;;;;8.02;1.98;;;17.50;99.90;;;;;;5071541;28;20196;-80
2022/07/04 06:42:11;;;;;;;8.05;1.90;;;17.50;99.90;;;;;;5055109;28;20601;-81
2022/07/04 06:44:42;;;;;;;10.15;2.15;;;17.50;99.90;;;;;;5049549;28;20195;-80
2022/07/04 06:47:12;;;;;;;10.85;1.95;;;17.50;99.90;;;;;;5051199;28;20200;-80
2022/07/04 06:49:43;;;;;;;8.88;1.80;;;17.50;99.90;;;;;;5051957;28;20196;-80
2022/07/04 06:52:14;;;;;;;7.53;1.73;;;17.50;99.90;;;;;;5053340;28;20204;-80
2022/07/04 06:54:46;;;;;;;10.05;2.10;;;17.50;99.90;;;;;;5055391;28;20227;-80
2022/07/04 06:57:19;;;;;;;9.18;1.60;;;17.50;99.90;;;;;;5051759;28;20683;-80
2022/07/04 06:59:49;;;;;;;9.02;1.50;;;17.50;99.90;;;;;;5061013;28;20188;-80
2022/07/04 07:02:20;;;;;;;11.65;1.70;;;17.50;99.90;;;;;;5044929;28;20598;-80
2022/07/04 07:04:52;;;;;;;9.32;1.50;;;17.50;99.90;;;;;;5051610;28;20189;-80
2022/07/04 07:07:24;;;;;;;8.13;1.58;;;17.50;99.90;;;;;;5051714;28;20270;-81
2022/07/04 07:09:55;;;;;;;4.93;1.30;;;17.50;99.90;;;;;;5051936;28;20235;-80
2022/07/04 07:12:28;;;;;;;4.88;1.13;;;17.50;99.90;;;;;;5052039;28;20640;-80
2022/07/04 07:14:58;;;;;;;3.75;1.00;;;17.50;99.90;;;;;;5051708;28;20220;-80
2022/07/04 07:17:31;;;;;;;8.13;1.80;;;17.40;99.90;;;;;;5051222;28;20556;-80
2022/07/04 07:20:02;;;;;;;8.02;1.50;;;17.40;99.90;;;;;;5043655;28;20193;-80
2022/07/04 07:22:33;;;;;;;5.03;1.30;;;17.30;99.90;;;;;;5051270;28;20283;-80
2022/07/04 07:25:03;;;;;;;3.70;1.00;;;17.20;99.90;;;;;;5043634;28;20201;-81
2022/07/04 07:27:37;;;;;;;7.05;1.42;;;17.00;99.90;;;;;;5051325;28;20188;-81
2022/07/04 07:30:09;;;;;;;4.28;1.35;;;17.00;99.90;;;;;;5043612;28;20251;-80
2022/07/04 07:32:39;;;;;;;3.72;1.20;;;16.80;99.90;;;;;;5051197;28;20193;-80
2022/07/04 07:35:11;;;;;;;3.20;1.10;;;16.80;99.90;;;;;;5035805;28;20710;-81
2022/07/04 07:37:41;;;;;;;9.55;2.03;;;16.80;99.90;;;;;;5049111;28;20236;-81
2022/07/04 07:40:13;;;;;;;11.07;2.42;;;16.80;99.90;;;;;;5050683;28;20209;-81
2022/07/04 07:42:45;;;;;;;13.18;2.58;;;16.90;99.90;;;;;;5050452;28;20382;-80
2022/07/04 07:45:16;;;;;;;13.38;2.83;;;16.90;99.90;;;;;;5050739;28;20613;-80
2022/07/04 07:47:47;;;;;;;13.10;2.67;;;16.90;99.90;;;;;;5056986;28;20185;-79
2022/07/04 07:50:17;;;;;;;13.55;2.65;;;17.00;99.90;;;;;;5062615;28;20392;-80
2022/07/04 07:52:48;;;;;;;11.98;2.60;;;17.00;99.90;;;;;;5051589;28;20208;-80
2022/07/04 07:55:19;;;;;;;9.10;2.38;;;17.10;99.90;;;;;;5042770;28;20228;-80
2022/07/04 07:57:52;;;;;;;10.40;1.95;;;17.10;99.90;;;;;;5049604;28;20224;-80
2022/07/04 08:00:23;;;;;;;9.00;1.83;;;17.10;99.90;;;;;;5051089;28;20193;-80
2022/07/04 08:05:41;;;;;;;14.23;2.30;;;17.10;99.90;;;;;;5049960;28;20573;-80
2022/07/04 08:08:12;;;;;;;12.52;2.30;;;17.00;99.90;;;;;;5050544;28;20275;-80
2022/07/04 08:10:42;;;;;;;17.92;3.00;;;17.00;99.90;;;;;;5044369;28;20215;-80
2022/07/04 08:13:15;;;;;;;13.05;3.03;;;17.10;99.90;;;;;;5050424;28;20200;-80
2022/07/04 08:15:45;;;;;;;11.80;2.95;;;17.10;99.90;;;;;;5052814;28;20231;-80
2022/07/04 08:18:17;;;;;;;12.35;2.40;;;17.10;99.90;;;;;;5069952;28;20192;-80
2022/07/04 08:20:48;;;;;;;10.13;1.95;;;17.10;99.90;;;;;;5060863;28;20200;-80
2022/07/04 08:23:19;;;;;;;12.02;2.40;;;17.00;99.90;;;;;;5048317;28;20204;-80
2022/07/04 08:25:50;;;;;;;11.77;2.35;;;16.90;99.90;;;;;;5050151;28;20196;-80
2022/07/04 08:28:26;;;;;;;11.52;2.33;;;16.90;99.90;;;;;;5063549;28;20685;-81
2022/07/04 08:30:57;;;;;;;19.45;3.03;;;17.00;99.90;;;;;;5069867;28;20278;-80
2022/07/04 08:33:28;;;;;;;24.70;3.30;;;17.00;99.90;;;;;;5069737;28;20200;-80
2022/07/04 08:35:58;;;;;;;17.38;3.05;;;17.00;99.90;;;;;;5069085;28;20231;-80
2022/07/04 08:38:29;;;;;;;17.90;2.70;;;17.10;99.90;;;;;;5069762;28;20271;-80
2022/07/04 08:41:04;;;;;;;12.65;2.60;;;17.00;99.90;;;;;;5068772;28;20188;-80
2022/07/04 08:43:37;;;;;;;15.75;2.90;;;17.00;99.90;;;;;;5069064;28;20190;-81
2022/07/04 08:46:09;;;;;;;15.05;3.60;;;17.00;99.90;;;;;;5048193;28;20185;-80
2022/07/04 08:48:43;;;;;;;14.40;3.28;;;17.00;99.90;;;;;;5050093;28;20189;-81
2022/07/04 08:51:18;;;;;;;14.00;3.03;;;17.00;99.90;;;;;;5050023;28;20247;-81
2022/07/04 08:53:54;;;;;;;13.90;2.80;;;17.00;99.90;;;;;;5050598;28;20184;-80
2022/07/04 08:59:16;;;;;;;12.57;3.30;;;16.90;99.90;;;;;;5053954;28;20282;-81
2022/07/04 09:01:47;;;;;;;18.20;3.25;;;16.90;99.90;;;;;;5041190;28;20276;-81
2022/07/04 09:04:18;;;;;;;17.50;3.50;;;16.90;99.90;;;;;;5062258;28;20220;-81
2022/07/04 09:06:52;;;;;;;17.23;3.65;;;16.90;99.90;;;;;;5044813;28;20216;-79
2022/07/04 09:09:23;;;;;;;16.85;3.13;;;16.90;99.90;;;;;;5047170;28;20221;-80
2022/07/04 09:11:54;;;;;;;13.05;2.65;;;17.00;99.90;;;;;;5054395;28;20272;-78
2022/07/04 09:14:27;;;;;;;16.88;3.17;;;17.00;99.90;;;;;;5045382;28;20220;-80
2022/07/04 09:17:01;;;;;;;9.95;2.67;;;17.00;99.90;;;;;;5046341;28;20192;-80
2022/07/04 09:19:31;;;;;;;13.18;3.10;;;17.00;99.90;;;;;;5053980;28;20203;-81
2022/07/04 09:22:06;;;;;;;16.52;2.88;;;17.00;99.90;;;;;;5051030;28;20196;-80
2022/07/04 09:24:50;;;;;;;14.77;2.70;;;17.00;99.90;;;;;;5051590;28;20257;-81
2022/07/04 09:27:34;;;;;;;16.23;2.90;;;17.00;99.90;;;;;;5049697;28;20181;-85
2022/07/04 09:30:07;;;;;;;15.98;3.00;;;17.00;99.90;;;;;;5051652;28;20208;-83
2022/07/04 09:32:40;;;;;;;13.02;2.58;;;17.00;99.90;;;;;;5043894;28;20225;-82
2022/07/04 09:35:13;;;;;;;11.68;2.63;;;17.00;99.90;;;;;;5048310;28;20231;-82
2022/07/04 09:37:46;;;;;;;14.55;2.85;;;17.00;99.90;;;;;;5044050;28;20229;-81
2022/07/04 09:40:26;;;;;;;16.42;3.35;;;17.00;99.90;;;;;;5046176;28;20642;-82
2022/07/04 09:42:57;;;;;;;14.25;2.50;;;17.00;99.90;;;;;;5044584;28;20192;-82
2022/07/04 09:45:30;;;;;;;14.90;2.38;;;17.00;99.90;;;;;;5044640;28;20193;-80
2022/07/04 09:48:01;;;;;;;11.55;2.40;;;17.00;99.90;;;;;;5045583;28;20569;-79
2022/07/04 09:50:32;;;;;;;13.52;2.47;;;17.00;99.90;;;;;;5045750;28;20207;-79
2022/07/04 09:53:06;;;;;;;8.90;2.00;;;17.00;99.90;;;;;;5044674;28;20205;-80
2022/07/04 09:55:37;;;;;;;11.45;2.50;;;17.00;99.90;;;;;;5044583;28;20243;-82
2022/07/04 09:58:09;;;;;;;9.95;2.25;;;17.00;99.90;;;;;;5044522;28;20207;-80
2022/07/04 10:00:43;;;;;;;13.13;2.10;;;16.90;99.90;;;;;;5044877;28;20198;-80
2022/07/04 10:03:21;;;;;;;13.88;2.20;;;16.90;99.90;;;;;;5044877;28;20216;-80
2022/07/04 10:06:05;;;;;;;11.95;2.30;;;16.90;99.90;;;;;;5045354;28;20557;-80
2022/07/04 10:08:36;;;;;;;8.68;2.40;;;16.90;99.90;;;;;;5045008;28;20203;-81
2022/07/04 10:11:07;;;;;;;10.02;2.20;;;16.90;99.90;;;;;;5044125;28;20683;-81
2022/07/04 10:13:39;;;;;;;13.48;2.25;;;16.80;99.90;;;;;;5045450;28;20204;-80
2022/07/04 10:16:11;;;;;;;12.70;2.47;;;16.90;99.90;;;;;;5044286;28;20259;-81
2022/07/04 10:18:44;;;;;;;10.80;1.85;;;16.80;99.90;;;;;;5043770;28;20250;-81
2022/07/04 10:21:15;;;;;;;13.27;2.70;;;16.80;99.90;;;;;;5043984;28;20644;-81
2022/07/04 10:23:47;;;;;;;12.27;2.00;;;16.80;99.90;;;;;;5044756;28;20690;-81
2022/07/04 10:26:22;;;;;;;14.35;2.05;;;16.80;99.90;;;;;;5044275;28;20201;-81
2022/07/04 10:28:54;;;;;;;8.77;1.80;;;16.80;99.90;;;;;;5043663;28;20896;-80
2022/07/04 10:31:28;;;;;;;8.43;1.80;;;16.80;99.90;;;;;;5044050;28;20233;-81
2022/07/04 10:34:01;;;;;;;9.05;1.83;;;16.70;99.90;;;;;;5045378;28;20211;-80
2022/07/04 10:36:32;;;;;;;8.43;1.45;;;16.70;99.90;;;;;;5044494;28;20237;-81
2022/07/04 10:39:04;;;;;;;10.35;1.77;;;16.70;99.90;;;;;;5044900;28;20205;-79
2022/07/04 10:41:35;;;;;;;11.20;2.03;;;16.80;99.90;;;;;;5043583;28;20196;-81
2022/07/04 10:44:13;;;;;;;12.18;2.30;;;16.70;99.90;;;;;;5044415;28;20215;-81
2022/07/04 10:46:56;;;;;;;13.88;2.33;;;16.70;99.90;;;;;;5042290;28;20189;-80
2022/07/04 10:49:29;;;;;;;10.00;2.15;;;16.70;99.90;;;;;;5044213;28;20204;-82
2022/07/04 10:52:12;;;;;;;16.05;2.42;;;16.80;99.90;;;;;;5044399;28;20203;-82
2022/07/04 10:54:43;;;;;;;12.75;2.22;;;16.80;99.90;;;;;;5040401;28;20220;-82
2022/07/04 10:57:17;;;;;;;14.77;2.85;;;16.80;99.90;;;;;;5047932;28;20201;-84
2022/07/04 11:00:08;;;;;;;13.68;2.17;;;16.80;99.90;;;;;;5049747;28;20184;-83
2022/07/04 11:02:40;;;;;;;9.27;1.80;;;16.80;99.90;;;;;;5056610;28;20263;-83
2022/07/04 11:05:14;;;;;;;14.07;2.00;;;16.80;99.90;;;;;;5056613;28;20281;-84
2022/07/04 11:08:03;;;;;;;10.13;2.20;;;16.80;99.90;;;;;;5060668;28;20223;-83
2022/07/04 11:10:35;;;;;;;11.23;2.22;;;16.80;99.90;;;;;;5059407;28;20645;-84
2022/07/04 11:13:21;;;;;;;13.07;2.20;;;16.80;99.90;;;;;;5055861;28;20224;-84
2022/07/04 11:16:09;;;;;;;15.00;2.22;;;16.80;99.90;;;;;;5059251;28;20213;-82
2022/07/04 11:18:49;;;;;;;10.05;2.50;;;16.90;99.90;;;;;;5049712;28;20280;-84
2022/07/04 11:21:26;;;;;;;11.70;2.30;;;16.90;99.90;;;;;;5042734;28;20306;-84
2022/07/04 11:23:58;;;;;;;11.20;2.50;;;16.90;99.90;;;;;;5052510;28;20188;-83
2022/07/04 11:26:29;;;;;;;11.48;2.45;;;16.90;99.90;;;;;;5070820;28;20245;-83
2022/07/04 11:28:59;;;;;;;14.07;2.42;;;16.80;99.90;;;;;;5064953;28;20216;-80
2022/07/04 11:31:40;;;;;;;13.13;2.40;;;16.90;99.90;;;;;;5050898;28;20212;-81
2022/07/04 11:34:14;;;;;;;13.02;2.40;;;16.80;99.90;;;;;;5047221;28;20201;-80
2022/07/04 11:36:46;;;;;;;11.85;2.30;;;16.80;99.90;;;;;;5045321;28;20291;-80
2022/07/04 11:39:19;;;;;;;11.57;1.95;;;16.70;99.90;;;;;;5048844;28;20224;-80
2022/07/04 11:47:34;;;;;;;22.27;3.60;;;16.70;99.90;;;;;;5051052;28;20246;-79
2022/07/04 11:50:09;;;;;;;17.25;3.60;;;16.70;99.90;;;;;;5056726;28;20191;-82
2022/07/04 11:52:46;;;;;;;21.58;2.97;;;16.70;99.90;;;;;;5056379;28;20200;-87
2022/07/04 11:55:18;;;;;;;15.77;3.08;;;16.80;99.90;;;;;;5051297;28;20232;-90
2022/07/04 11:57:50;;;;;;;16.23;2.95;;;16.80;99.90;;;;;;5032608;28;20201;-90
2022/07/04 12:00:23;;;;;;;12.82;2.40;;;16.70;99.90;;;;;;5032225;28;20192;-84
2022/07/04 12:02:53;;;;;;;13.45;2.42;;;16.70;99.90;;;;;;5058838;28;20791;-82
2022/07/04 12:05:26;;;;;;;17.48;2.90;;;16.60;99.90;;;;;;5044522;28;20197;-82
2022/07/04 12:08:00;;;;;;;17.98;2.83;;;16.70;99.90;;;;;;5064343;28;20201;-83
2022/07/04 12:10:31;;;;;;;15.73;3.40;;;16.70;99.90;;;;;;5052112;28;20197;-84
2022/07/04 12:13:06;;;;;;;8.23;2.15;;;16.70;99.90;;;;;;5060634;28;20204;-84
2022/07/04 12:15:41;;;;;;;11.23;2.40;;;16.70;99.90;;;;;;5055998;28;20220;-82
2022/07/04 12:18:20;;;;;;;15.57;2.85;;;16.70;99.90;;;;;;5059245;28;20180;-83
2022/07/04 12:20:57;;;;;;;16.38;2.72;;;16.70;99.90;;;;;;5054519;28;20211;-83
2022/07/04 12:23:28;;;;;;;14.00;2.25;;;16.70;99.90;;;;;;5035927;28;20756;-84
2022/07/04 12:26:00;;;;;;;12.90;2.40;;;16.60;99.90;;;;;;5050136;28;20249;-84
2022/07/04 12:28:38;;;;;;;11.02;2.33;;;16.60;99.90;;;;;;5053102;28;20302;-83
2022/07/04 12:31:09;;;;;;;12.57;2.40;;;16.70;99.90;;;;;;5050630;28;20189;-84
2022/07/04 12:33:40;;;;;;;16.85;2.78;;;16.60;99.90;;;;;;5050701;28;20184;-84
2022/07/04 12:36:15;;;;;;;12.95;2.85;;;16.70;99.90;;;;;;5050794;28;20255;-82
2022/07/04 12:38:46;;;;;;;18.10;3.05;;;16.70;99.90;;;;;;5070803;28;20654;-84
2022/07/04 12:41:18;;;;;;;12.45;2.10;;;16.70;99.90;;;;;;5052052;28;20213;-81
2022/07/04 12:43:50;;;;;;;15.05;2.33;;;16.70;99.90;;;;;;5045499;28;20196;-82
2022/07/04 12:46:31;;;;;;;13.40;2.53;;;16.60;99.90;;;;;;5049703;28;20202;-82
2022/07/04 12:49:03;;;;;;;15.73;2.58;;;16.60;99.90;;;;;;5056308;28;20654;-82
2022/07/04 12:51:36;;;;;;;15.98;2.70;;;16.60;99.90;;;;;;5053198;28;20196;-83
2022/07/04 12:54:11;;;;;;;18.13;2.90;;;16.70;99.90;;;;;;5055646;28;20196;-82
2022/07/04 12:56:43;;;;;;;19.17;2.97;;;16.70;99.90;;;;;;5051037;28;20220;-84
2022/07/04 12:59:15;;;;;;;18.15;3.50;;;16.70;99.90;;;;;;5051548;28;20236;-81
2022/07/04 13:01:48;;;;;;;15.52;2.53;;;16.70;99.90;;;;;;5044444;28;20657;-81
2022/07/04 13:04:19;;;;;;;17.33;2.40;;;16.70;99.90;;;;;;5040889;28;20279;-79
2022/07/04 13:06:51;;;;;;;14.73;2.63;;;16.80;99.90;;;;;;5049171;28;20216;-82
2022/07/04 13:09:22;;;;;;;15.05;2.42;;;16.70;99.90;;;;;;5050561;28;20200;-83
2022/07/04 13:14:39;;;;;;;20.50;3.35;;;16.70;99.90;;;;;;5043782;28;20208;-79
2022/07/04 13:17:10;;;;;;;16.98;3.05;;;16.70;99.90;;;;;;5044415;28;20224;-79
2022/07/04 13:19:41;;;;;;;17.88;3.10;;;16.60;99.90;;;;;;5048291;28;20215;-79
2022/07/04 13:22:14;;;;;;;16.02;2.67;;;16.50;99.90;;;;;;5041155;28;20208;-79
2022/07/04 13:24:44;;;;;;;12.95;2.72;;;16.60;99.90;;;;;;5050169;28;20221;-81
2022/07/04 13:27:15;;;;;;;17.17;3.13;;;16.60;99.90;;;;;;5059058;28;20671;-80